Time;durP1;ratioP1;P1;durP2;ratioP2;P2;SDS_P1;SDS_P2;PMS_P1;PMS_P2;Temp;Humidity;BMP_temperature;BMP_pressure;BME280_temperature;BME280_humidity;BME280_pressure;Samples;Min_cycle;Max_cycle;Signal;HPM_P1;HPM_P2
2021/06/02 00:02:03;;;;;;;2.47;1.83;;;16.50;99.90;;;;;;5016633;28;20450;-54
2021/06/02 00:04:32;;;;;;;2.10;1.77;;;16.50;99.90;;;;;;5018805;28;20445;-53
2021/06/02 00:07:00;;;;;;;6.97;1.80;;;16.40;99.90;;;;;;5019195;28;20484;-53
2021/06/02 00:09:28;;;;;;;2.73;1.93;;;16.40;99.90;;;;;;5019337;28;20446;-54
2021/06/02 00:11:56;;;;;;;3.70;1.73;;;16.40;99.90;;;;;;5019123;28;20482;-54
2021/06/02 00:14:24;;;;;;;5.20;2.10;;;16.30;99.90;;;;;;5019613;28;20436;-46
2021/06/02 00:16:50;;;;;;;2.33;1.70;;;16.20;99.90;;;;;;5018761;28;20456;-48
2021/06/02 00:19:18;;;;;;;4.70;1.73;;;16.20;99.90;;;;;;5019178;28;20457;-54
2021/06/02 00:21:44;;;;;;;2.70;1.87;;;16.20;99.90;;;;;;5019329;28;20446;-50
2021/06/02 00:24:10;;;;;;;2.40;1.90;;;16.10;99.90;;;;;;5018588;28;20442;-49
2021/06/02 00:26:51;;;;;;;3.17;1.93;;;16.10;99.90;;;;;;5010307;28;20433;-49
2021/06/02 00:29:19;;;;;;;2.70;1.60;;;16.10;99.90;;;;;;5005019;28;20454;-47
2021/06/02 00:31:46;;;;;;;2.67;2.03;;;16.00;99.90;;;;;;5014710;28;20487;-47
2021/06/02 00:34:13;;;;;;;2.00;1.80;;;16.00;99.90;;;;;;5007410;28;20503;-54
2021/06/02 00:36:43;;;;;;;2.47;1.97;;;16.00;99.90;;;;;;5019127;28;20446;-52
2021/06/02 00:39:28;;;;;;;3.50;1.67;;;16.00;99.90;;;;;;5012732;28;20432;-55
2021/06/02 00:41:55;;;;;;;2.57;2.10;;;15.90;99.90;;;;;;5017114;28;20422;-54
2021/06/02 00:44:22;;;;;;;2.47;1.50;;;15.90;99.90;;;;;;5018510;28;20453;-53
2021/06/02 00:46:49;;;;;;;2.50;1.77;;;15.80;99.90;;;;;;5011977;28;20447;-55
2021/06/02 00:49:22;;;;;;;1.90;1.20;;;15.90;99.90;;;;;;4998974;28;20485;-54
2021/06/02 00:51:50;;;;;;;4.23;1.70;;;15.80;99.90;;;;;;4998625;28;20493;-55
2021/06/02 00:54:18;;;;;;;2.53;1.70;;;15.80;99.90;;;;;;5004290;28;20446;-55
2021/06/02 00:56:51;;;;;;;3.23;2.23;;;15.70;99.90;;;;;;5015295;28;20446;-55
2021/06/02 00:59:18;;;;;;;2.17;1.60;;;15.70;99.90;;;;;;5010631;28;20430;-55
2021/06/02 01:01:47;;;;;;;2.20;1.80;;;15.60;99.90;;;;;;4998611;28;20439;-54
2021/06/02 01:04:15;;;;;;;4.10;1.80;;;15.60;99.90;;;;;;5010805;28;20465;-53
2021/06/02 01:06:44;;;;;;;3.57;2.37;;;15.60;99.90;;;;;;5017254;28;20474;-54
2021/06/02 01:09:12;;;;;;;3.23;1.83;;;15.60;99.90;;;;;;5014143;28;20447;-53
2021/06/02 01:11:42;;;;;;;2.70;1.60;;;15.60;99.90;;;;;;5003438;28;20469;-49
2021/06/02 01:14:08;;;;;;;4.70;2.17;;;15.60;99.90;;;;;;5011046;28;20430;-47
2021/06/02 01:16:36;;;;;;;3.60;2.00;;;15.60;99.90;;;;;;4998250;28;20479;-57
2021/06/02 01:19:03;;;;;;;3.33;2.23;;;15.60;99.90;;;;;;5001036;28;20461;-53
2021/06/02 01:21:31;;;;;;;3.50;2.17;;;15.50;99.90;;;;;;5015815;28;20461;-49
2021/06/02 01:24:01;;;;;;;4.20;2.00;;;15.50;99.90;;;;;;5013181;28;20431;-47
2021/06/02 01:26:30;;;;;;;7.13;2.27;;;15.50;99.90;;;;;;5008053;28;20442;-54
2021/06/02 01:28:56;;;;;;;2.87;1.90;;;15.50;99.90;;;;;;5016192;28;20444;-48
2021/06/02 01:31:55;;;;;;;9.13;2.53;;;15.50;99.90;;;;;;4997937;28;20475;-52
2021/06/02 01:34:34;;;;;;;3.90;2.40;;;15.50;99.90;;;;;;4983014;28;20451;-48
2021/06/02 01:37:12;;;;;;;2.80;1.97;;;15.50;99.90;;;;;;4997934;28;20406;-47
2021/06/02 01:40:17;;;;;;;4.77;2.13;;;15.50;99.90;;;;;;5008161;28;20418;-48
2021/06/02 01:42:57;;;;;;;4.60;2.20;;;15.50;99.90;;;;;;4983678;28;20431;-51
2021/06/02 01:45:44;;;;;;;4.93;2.00;;;15.40;99.90;;;;;;5006338;28;20434;-49
2021/06/02 01:48:30;;;;;;;6.33;2.37;;;15.30;99.90;;;;;;5017379;28;20430;-50
2021/06/02 01:51:27;;;;;;;6.03;3.10;;;15.30;99.90;;;;;;5001563;28;20498;-50
2021/06/02 01:54:11;;;;;;;9.73;2.50;;;15.30;99.90;;;;;;5004184;28;20421;-49
2021/06/02 01:56:54;;;;;;;6.03;2.20;;;15.30;99.90;;;;;;5014989;28;20437;-50
2021/06/02 01:59:58;;;;;;;3.70;3.00;;;15.20;99.90;;;;;;4998293;28;20463;-58
2021/06/02 02:03:00;;;;;;;5.00;2.37;;;15.20;99.90;;;;;;4997403;28;20430;-52
2021/06/02 02:05:58;;;;;;;7.40;2.70;;;15.10;99.90;;;;;;5011070;28;20458;-53
2021/06/02 02:08:44;;;;;;;4.40;2.93;;;15.10;99.90;;;;;;5013830;28;20450;-55
2021/06/02 02:11:37;;;;;;;5.27;2.77;;;15.10;99.90;;;;;;4996938;28;20471;-53
2021/06/02 02:14:19;;;;;;;3.23;1.93;;;15.10;99.90;;;;;;4997449;28;20557;-55
2021/06/02 02:17:02;;;;;;;3.83;2.40;;;15.10;99.90;;;;;;4997144;28;20427;-52
2021/06/02 02:19:52;;;;;;;5.40;3.17;;;15.00;99.90;;;;;;4997257;28;20442;-51
2021/06/02 02:22:41;;;;;;;5.80;2.30;;;15.00;99.90;;;;;;4997734;28;20431;-49
2021/06/02 02:25:13;;;;;;;3.73;2.30;;;15.10;99.90;;;;;;4998022;28;20431;-52
2021/06/02 02:27:48;;;;;;;6.23;2.37;;;15.00;99.90;;;;;;5001282;28;20435;-49
2021/06/02 02:30:23;;;;;;;6.07;3.07;;;15.00;99.90;;;;;;5001767;28;20450;-54
2021/06/02 02:33:02;;;;;;;6.07;2.63;;;15.00;99.90;;;;;;5001999;28;20410;-52
2021/06/02 02:35:41;;;;;;;3.73;2.43;;;15.00;99.90;;;;;;5002000;28;20463;-55
2021/06/02 02:38:18;;;;;;;4.50;2.50;;;15.00;99.90;;;;;;5001883;28;20451;-52
2021/06/02 02:40:53;;;;;;;4.70;2.90;;;15.00;99.90;;;;;;5002483;28;20434;-52
2021/06/02 02:43:39;;;;;;;7.50;2.90;;;14.90;99.90;;;;;;5002375;28;20458;-51
2021/06/02 02:46:10;;;;;;;5.20;3.13;;;14.90;99.90;;;;;;5002619;28;20423;-55
2021/06/02 02:48:46;;;;;;;4.40;2.87;;;14.90;99.90;;;;;;5001981;28;20483;-56
2021/06/02 02:51:27;;;;;;;7.57;3.67;;;14.90;99.90;;;;;;5001847;28;20474;-49
2021/06/02 02:54:02;;;;;;;6.43;3.07;;;14.90;99.90;;;;;;5000986;28;20427;-48
2021/06/02 02:56:37;;;;;;;4.43;2.90;;;14.90;99.90;;;;;;5001349;28;20454;-50
2021/06/02 02:59:08;;;;;;;9.50;3.30;;;14.90;99.90;;;;;;5001986;28;20430;-54
2021/06/02 03:01:44;;;;;;;3.80;2.53;;;14.80;99.90;;;;;;5001608;28;20439;-53
2021/06/02 03:04:15;;;;;;;4.60;2.63;;;14.80;99.90;;;;;;5001614;28;20429;-52
2021/06/02 03:06:48;;;;;;;4.17;3.00;;;14.80;99.90;;;;;;5001595;28;20469;-52
2021/06/02 03:09:28;;;;;;;4.60;3.17;;;14.70;99.90;;;;;;5001770;28;20460;-55
2021/06/02 03:12:02;;;;;;;6.83;4.00;;;14.70;99.90;;;;;;5001592;28;20467;-50
2021/06/02 03:14:45;;;;;;;11.90;4.13;;;14.70;99.90;;;;;;5001662;28;20419;-55
2021/06/02 03:17:16;;;;;;;6.40;4.30;;;14.70;99.90;;;;;;5001569;28;20431;-55
2021/06/02 03:19:48;;;;;;;7.30;3.97;;;14.60;99.90;;;;;;5001441;28;20462;-53
2021/06/02 03:22:20;;;;;;;4.60;3.20;;;14.60;99.90;;;;;;5001397;28;20443;-52
2021/06/02 03:25:00;;;;;;;6.43;3.60;;;14.50;99.90;;;;;;5001732;28;20459;-53
2021/06/02 03:27:31;;;;;;;6.47;3.43;;;14.50;99.90;;;;;;5001970;28;20434;-54
2021/06/02 03:30:08;;;;;;;5.03;3.43;;;14.60;99.90;;;;;;5001615;28;20419;-53
2021/06/02 03:32:47;;;;;;;4.80;4.10;;;14.50;99.90;;;;;;5000738;28;20502;-56
2021/06/02 03:35:18;;;;;;;5.90;4.13;;;14.50;99.90;;;;;;5000457;28;20431;-54
2021/06/02 03:37:57;;;;;;;6.67;3.43;;;14.50;99.90;;;;;;4999812;28;20412;-55
2021/06/02 03:40:35;;;;;;;6.80;4.57;;;14.50;99.90;;;;;;5001187;28;20407;-54
2021/06/02 03:43:10;;;;;;;4.90;3.87;;;14.50;99.90;;;;;;5001655;28;20423;-55
2021/06/02 03:45:48;;;;;;;7.53;4.03;;;14.60;99.90;;;;;;5001666;28;20442;-52
2021/06/02 03:48:40;;;;;;;4.90;3.70;;;14.60;99.90;;;;;;5000447;28;20486;-54
2021/06/02 03:51:17;;;;;;;6.43;4.00;;;14.50;99.90;;;;;;5001156;28;20505;-54
2021/06/02 03:54:07;;;;;;;9.10;4.10;;;14.60;99.90;;;;;;5001374;28;20442;-54
2021/06/02 03:56:54;;;;;;;12.23;5.87;;;14.50;99.90;;;;;;4986375;28;20431;-49
2021/06/02 03:59:37;;;;;;;9.53;4.50;;;14.50;99.90;;;;;;4999763;28;20432;-52
2021/06/02 04:02:09;;;;;;;8.20;5.00;;;14.50;99.90;;;;;;5000007;28;20478;-55
2021/06/02 04:04:47;;;;;;;9.80;5.70;;;14.50;99.90;;;;;;5000319;28;20435;-54
2021/06/02 04:07:22;;;;;;;6.43;5.00;;;14.50;99.90;;;;;;4999834;28;20498;-47
2021/06/02 04:10:07;;;;;;;11.90;4.57;;;14.50;99.90;;;;;;4999685;28;20406;-53
2021/06/02 04:12:41;;;;;;;5.37;3.97;;;14.50;99.90;;;;;;4999481;28;20482;-54
2021/06/02 04:15:08;;;;;;;8.23;4.57;;;14.50;99.90;;;;;;4999911;28;20431;-55
2021/06/02 04:17:36;;;;;;;6.20;4.67;;;14.50;99.90;;;;;;4999491;28;20462;-51
2021/06/02 04:20:05;;;;;;;5.20;3.93;;;14.40;99.90;;;;;;4999232;28;20459;-48
2021/06/02 04:22:33;;;;;;;5.70;4.30;;;14.40;99.90;;;;;;4999097;28;20447;-48
2021/06/02 04:25:03;;;;;;;8.97;4.30;;;14.40;99.90;;;;;;4998909;28;20458;-48
2021/06/02 04:27:33;;;;;;;4.30;3.87;;;14.40;99.90;;;;;;5001070;28;20458;-55
2021/06/02 04:30:04;;;;;;;7.20;4.50;;;14.40;99.90;;;;;;4999471;28;20446;-55
2021/06/02 04:32:39;;;;;;;7.47;4.43;;;14.50;99.90;;;;;;4999358;28;20467;-55
2021/06/02 04:35:08;;;;;;;5.90;4.10;;;14.50;99.90;;;;;;4999290;28;20442;-55
2021/06/02 04:37:35;;;;;;;10.83;4.37;;;14.60;99.90;;;;;;4998999;28;20446;-55
2021/06/02 04:40:05;;;;;;;12.17;5.17;;;14.50;99.90;;;;;;4998579;28;20478;-49
2021/06/02 04:42:35;;;;;;;8.73;4.40;;;14.50;99.90;;;;;;4998841;28;20487;-51
2021/06/02 04:45:02;;;;;;;6.50;4.50;;;14.50;99.90;;;;;;4998902;28;20447;-53
2021/06/02 04:47:30;;;;;;;12.90;4.20;;;14.50;99.90;;;;;;4998467;28;20466;-49
2021/06/02 04:50:09;;;;;;;8.77;4.40;;;14.60;99.90;;;;;;5000014;28;20458;-54
2021/06/02 04:53:27;;;;;;;9.70;4.50;;;14.60;99.90;;;;;;4998866;28;20462;-54
2021/06/02 04:56:15;;;;;;;9.50;4.27;;;14.70;99.90;;;;;;4900170;29;20502;-54
2021/06/02 04:59:08;;;;;;;5.20;4.17;;;14.70;99.90;;;;;;4970795;28;20459;-53
2021/06/02 05:01:53;;;;;;;6.90;4.30;;;14.80;99.90;;;;;;4993581;28;20454;-52
2021/06/02 05:04:55;;;;;;;10.20;4.67;;;14.80;99.90;;;;;;4998222;28;20454;-51
2021/06/02 05:07:54;;;;;;;5.20;3.70;;;14.90;99.90;;;;;;4986009;28;20939;-52
2021/06/02 05:11:09;;;;;;;7.00;4.60;;;14.90;99.90;;;;;;4998417;28;20441;-52
2021/06/02 05:14:34;;;;;;;7.70;4.87;;;15.00;99.90;;;;;;4999044;28;20773;-47
2021/06/02 05:17:37;;;;;;;5.20;3.97;;;15.00;99.90;;;;;;4999196;28;20450;-51
2021/06/02 05:20:51;;;;;;;5.47;3.80;;;15.10;99.90;;;;;;4997904;28;20878;-52
2021/06/02 05:23:48;;;;;;;5.70;4.03;;;15.20;99.90;;;;;;4996165;28;20469;-54
2021/06/02 05:26:42;;;;;;;6.37;4.43;;;15.30;99.90;;;;;;4995927;28;20454;-54
2021/06/02 05:29:58;;;;;;;6.57;3.70;;;15.40;99.90;;;;;;4996121;28;20552;-48
2021/06/02 05:33:06;;;;;;;9.33;4.90;;;15.50;99.90;;;;;;4996251;28;20529;-48
2021/06/02 05:36:05;;;;;;;9.47;3.93;;;15.60;99.90;;;;;;4995991;28;20426;-54
2021/06/02 05:39:05;;;;;;;7.20;4.53;;;15.80;99.90;;;;;;4971777;28;20447;-52
2021/06/02 05:41:52;;;;;;;6.23;4.10;;;15.90;99.90;;;;;;4994255;28;20517;-52
2021/06/02 05:44:51;;;;;;;5.60;4.63;;;16.00;99.90;;;;;;4996009;28;20438;-53
2021/06/02 05:47:39;;;;;;;8.00;4.10;;;16.10;99.90;;;;;;4996170;28;20508;-51
2021/06/02 05:50:29;;;;;;;8.60;4.73;;;16.20;99.90;;;;;;4957190;28;20458;-52
2021/06/02 05:53:30;;;;;;;4.80;3.70;;;16.30;99.90;;;;;;4996769;28;20446;-51
2021/06/02 05:56:32;;;;;;;7.37;5.33;;;16.40;99.90;;;;;;4997656;28;20481;-53
2021/06/02 05:59:27;;;;;;;9.63;4.00;;;16.60;99.90;;;;;;4991001;28;20465;-54
2021/06/02 06:02:01;;;;;;;9.33;4.63;;;16.80;99.90;;;;;;4996225;28;20431;-51
2021/06/02 06:05:13;;;;;;;10.10;4.40;;;17.00;99.90;;;;;;4996238;28;20461;-49
2021/06/02 06:08:28;;;;;;;9.80;4.50;;;17.10;99.90;;;;;;4997135;28;20800;-50
2021/06/02 06:11:37;;;;;;;5.40;3.93;;;17.40;99.90;;;;;;4996917;28;20924;-51
2021/06/02 06:14:35;;;;;;;5.00;3.67;;;17.40;99.90;;;;;;4996651;28;20464;-50
2021/06/02 06:17:39;;;;;;;9.40;4.53;;;17.60;99.90;;;;;;4997278;28;20505;-54
2021/06/02 06:20:41;;;;;;;7.40;4.00;;;17.80;99.90;;;;;;4993274;28;20439;-52
2021/06/02 06:23:18;;;;;;;6.20;3.93;;;18.00;99.90;;;;;;4984618;28;20923;-54
2021/06/02 06:25:50;;;;;;;8.43;5.03;;;18.20;99.90;;;;;;4983822;28;20442;-52
2021/06/02 06:28:24;;;;;;;6.97;4.20;;;18.30;99.90;;;;;;4977676;28;20451;-47
2021/06/02 06:30:53;;;;;;;10.93;5.23;;;18.50;99.90;;;;;;4982051;28;20897;-53
2021/06/02 06:33:21;;;;;;;5.33;3.90;;;18.60;99.90;;;;;;4995452;28;20485;-49
2021/06/02 06:35:51;;;;;;;6.60;3.90;;;18.70;99.90;;;;;;4995359;28;20446;-48
2021/06/02 06:38:21;;;;;;;5.33;4.50;;;18.80;99.90;;;;;;4995519;28;20430;-50
2021/06/02 06:40:51;;;;;;;6.70;4.57;;;18.90;99.90;;;;;;4995021;28;20813;-55
2021/06/02 06:43:21;;;;;;;7.27;4.53;;;19.00;99.90;;;;;;4990209;28;20458;-52
2021/06/02 06:45:48;;;;;;;7.17;3.80;;;19.10;99.90;;;;;;4986958;28;20454;-54
2021/06/02 06:48:20;;;;;;;5.33;4.60;;;19.20;99.90;;;;;;4987654;28;20833;-51
2021/06/02 06:50:48;;;;;;;4.67;3.97;;;19.30;99.90;;;;;;4982266;28;20521;-51
2021/06/02 06:53:16;;;;;;;7.73;3.90;;;19.40;99.90;;;;;;4983938;28;20907;-49
2021/06/02 06:55:43;;;;;;;17.63;7.43;;;19.50;99.90;;;;;;4982263;28;20462;-49
2021/06/02 06:58:10;;;;;;;26.00;17.40;;;19.70;99.90;;;;;;4974388;28;20933;-52
2021/06/02 07:00:39;;;;;;;8.03;5.07;;;19.70;99.90;;;;;;4974691;28;20458;-49
2021/06/02 07:03:08;;;;;;;10.60;6.10;;;19.90;99.90;;;;;;4974416;28;20534;-52
2021/06/02 07:05:37;;;;;;;8.50;5.60;;;20.00;99.90;;;;;;4974193;28;20499;-52
2021/06/02 07:08:06;;;;;;;8.20;5.10;;;20.20;99.90;;;;;;4974598;28;20458;-51
2021/06/02 07:10:32;;;;;;;6.73;3.90;;;20.30;99.90;;;;;;4974236;28;20451;-50
2021/06/02 07:12:58;;;;;;;6.67;4.77;;;20.40;99.90;;;;;;4985578;28;20508;-50
2021/06/02 07:15:26;;;;;;;6.10;4.90;;;20.50;99.90;;;;;;4987558;28;20450;-47
2021/06/02 07:17:53;;;;;;;13.73;5.20;;;21.00;99.90;;;;;;4977569;28;20478;-51
2021/06/02 07:20:21;;;;;;;7.60;4.83;;;22.10;99.90;;;;;;4976864;28;20450;-56
2021/06/02 07:22:51;;;;;;;6.30;4.70;;;23.80;99.90;;;;;;4977423;28;20454;-48
2021/06/02 07:25:18;;;;;;;6.97;5.10;;;25.70;99.90;;;;;;4977896;28;20453;-55
2021/06/02 07:27:46;;;;;;;8.67;4.67;;;27.50;92.90;;;;;;4977717;28;20451;-54
2021/06/02 07:30:13;;;;;;;6.83;4.53;;;29.10;80.60;;;;;;4977800;28;20474;-57
2021/06/02 07:32:40;;;;;;;5.60;4.13;;;30.30;70.00;;;;;;4977579;28;20482;-54
2021/06/02 07:35:07;;;;;;;6.87;4.27;;;31.50;62.50;;;;;;4977631;28;20447;-55
2021/06/02 07:37:36;;;;;;;11.00;5.33;;;32.50;56.60;;;;;;4977549;28;21157;-54
2021/06/02 07:40:06;;;;;;;6.13;4.10;;;33.50;52.90;;;;;;4977273;28;20462;-54
2021/06/02 07:42:32;;;;;;;6.53;4.77;;;34.30;50.10;;;;;;4977384;28;20503;-54
2021/06/02 07:44:58;;;;;;;9.43;5.60;;;34.80;47.10;;;;;;4977180;28;20447;-53
2021/06/02 07:47:25;;;;;;;10.47;5.10;;;34.70;46.30;;;;;;4977227;28;20467;-51
2021/06/02 07:49:51;;;;;;;7.17;5.20;;;34.90;46.10;;;;;;4977423;28;20454;-51
2021/06/02 07:52:17;;;;;;;8.70;4.80;;;35.30;44.70;;;;;;4977294;28;20486;-48
2021/06/02 07:54:44;;;;;;;13.33;5.17;;;35.60;43.90;;;;;;4977811;28;20447;-50
2021/06/02 07:57:11;;;;;;;10.17;5.50;;;35.50;43.30;;;;;;4976933;28;20455;-49
2021/06/02 07:59:38;;;;;;;5.70;5.10;;;35.70;42.80;;;;;;4977007;28;20882;-53
2021/06/02 08:02:04;;;;;;;6.27;5.37;;;35.80;42.40;;;;;;4976966;28;20458;-52
2021/06/02 08:04:31;;;;;;;6.70;5.23;;;36.10;41.90;;;;;;4976820;28;20458;-50
2021/06/02 08:06:57;;;;;;;5.03;4.53;;;36.10;41.50;;;;;;4976294;28;20486;-54
2021/06/02 08:09:24;;;;;;;7.30;5.40;;;36.10;41.50;;;;;;4968914;28;20461;-52
2021/06/02 08:11:51;;;;;;;6.30;4.80;;;36.00;41.40;;;;;;4976456;28;20482;-52
2021/06/02 08:14:18;;;;;;;6.63;4.23;;;36.00;41.20;;;;;;4976474;28;20486;-52
2021/06/02 08:16:45;;;;;;;7.47;5.07;;;36.20;41.10;;;;;;4976591;28;20480;-51
2021/06/02 08:19:11;;;;;;;5.90;4.73;;;36.00;41.00;;;;;;4976439;28;20450;-53
2021/06/02 08:21:38;;;;;;;6.30;4.07;;;35.80;41.00;;;;;;4976606;28;20884;-48
2021/06/02 08:24:05;;;;;;;4.93;4.43;;;35.70;40.80;;;;;;4975465;28;20454;-50
2021/06/02 08:26:34;;;;;;;7.03;6.30;;;35.60;41.20;;;;;;4976336;28;20513;-54
2021/06/02 08:29:01;;;;;;;5.90;4.83;;;35.60;41.30;;;;;;4976277;28;20443;-54
2021/06/02 08:31:28;;;;;;;14.00;4.20;;;35.60;41.50;;;;;;4976631;28;20479;-53
2021/06/02 08:33:55;;;;;;;9.40;5.37;;;35.90;40.90;;;;;;4976348;28;20505;-51
2021/06/02 08:36:21;;;;;;;7.83;5.90;;;35.90;40.80;;;;;;4976462;28;20847;-54
2021/06/02 08:38:47;;;;;;;7.43;6.73;;;35.90;40.80;;;;;;4976511;28;20461;-52
2021/06/02 08:41:13;;;;;;;11.53;5.37;;;35.60;41.40;;;;;;4976272;28;20455;-53
2021/06/02 08:43:43;;;;;;;9.20;5.27;;;35.50;42.10;;;;;;4976699;28;20451;-51
2021/06/02 08:46:09;;;;;;;16.03;14.30;;;35.50;41.30;;;;;;4976183;28;20969;-54
2021/06/02 08:48:38;;;;;;;6.23;4.70;;;35.80;41.10;;;;;;4975957;28;20447;-53
2021/06/02 08:51:05;;;;;;;6.80;4.90;;;36.00;40.70;;;;;;4976182;28;20499;-52
2021/06/02 08:53:32;;;;;;;6.30;4.90;;;36.40;39.60;;;;;;4975940;28;20941;-51
2021/06/02 08:56:03;;;;;;;4.50;4.10;;;36.10;39.40;;;;;;4976084;28;20447;-52
2021/06/02 08:58:30;;;;;;;5.60;5.07;;;36.30;39.60;;;;;;4975981;28;20451;-54
2021/06/02 09:00:57;;;;;;;5.33;4.70;;;36.20;38.90;;;;;;4976007;28;20483;-52
2021/06/02 09:03:24;;;;;;;6.93;5.23;;;36.10;39.50;;;;;;4975961;28;20467;-55
2021/06/02 09:05:55;;;;;;;5.10;4.70;;;36.00;39.60;;;;;;4975587;28;20878;-53
2021/06/02 09:08:24;;;;;;;8.60;5.30;;;35.90;39.50;;;;;;4975806;28;20474;-52
2021/06/02 09:10:51;;;;;;;6.70;5.30;;;36.00;39.70;;;;;;4975441;28;20455;-48
2021/06/02 09:13:19;;;;;;;9.43;5.23;;;36.30;39.70;;;;;;4975697;28;20447;-54
2021/06/02 09:15:47;;;;;;;6.60;6.00;;;37.00;38.60;;;;;;4975142;28;20454;-53
2021/06/02 09:18:18;;;;;;;9.43;5.10;;;37.60;38.10;;;;;;4975591;28;20463;-51
2021/06/02 09:20:46;;;;;;;7.40;6.30;;;37.80;38.30;;;;;;4975897;28;20458;-53
2021/06/02 09:23:35;;;;;;;6.43;5.13;;;37.60;38.10;;;;;;4975505;28;20513;-51
2021/06/02 09:26:20;;;;;;;9.13;6.10;;;37.40;38.10;;;;;;4975298;28;20525;-48
2021/06/02 09:28:58;;;;;;;8.40;5.90;;;36.70;39.00;;;;;;4975470;28;20775;-53
2021/06/02 09:31:27;;;;;;;8.43;6.17;;;36.40;39.20;;;;;;4975585;28;20489;-49
2021/06/02 09:33:55;;;;;;;6.20;5.27;;;36.20;39.60;;;;;;4975176;28;20471;-53
2021/06/02 09:36:29;;;;;;;7.80;5.90;;;36.20;39.30;;;;;;4974916;28;20450;-51
2021/06/02 09:38:59;;;;;;;6.33;5.00;;;36.00;39.60;;;;;;4958767;28;20518;-53
2021/06/02 09:41:27;;;;;;;7.87;6.03;;;35.80;39.20;;;;;;4975665;28;20459;-53
2021/06/02 09:43:54;;;;;;;7.83;5.50;;;36.10;39.50;;;;;;4975339;28;20537;-54
2021/06/02 09:46:21;;;;;;;5.87;5.33;;;36.10;38.90;;;;;;4974967;28;20538;-54
2021/06/02 09:49:01;;;;;;;6.60;5.63;;;36.20;38.90;;;;;;4975122;28;20533;-54
2021/06/02 09:51:36;;;;;;;5.90;5.40;;;36.00;40.00;;;;;;4974810;28;20986;-53
2021/06/02 09:54:06;;;;;;;5.47;4.97;;;36.00;40.70;;;;;;4975087;28;20541;-52
2021/06/02 09:56:37;;;;;;;7.77;5.93;;;35.70;40.80;;;;;;4975070;28;20469;-51
2021/06/02 09:59:06;;;;;;;5.17;4.70;;;35.50;39.70;;;;;;4975264;28;20455;-48
2021/06/02 10:01:57;;;;;;;5.10;4.27;;;35.40;41.20;;;;;;4974902;28;20573;-54
2021/06/02 10:04:34;;;;;;;5.90;5.30;;;35.40;39.30;;;;;;4975331;28;20462;-55
2021/06/02 10:07:02;;;;;;;7.27;5.80;;;35.50;40.10;;;;;;4975825;28;20553;-54
2021/06/02 10:09:32;;;;;;;7.93;5.77;;;35.40;40.50;;;;;;4975337;28;20451;-52
2021/06/02 10:12:00;;;;;;;5.47;4.97;;;35.30;40.70;;;;;;4975666;28;20478;-60
2021/06/02 10:14:27;;;;;;;5.83;5.23;;;35.40;39.30;;;;;;4975061;28;20458;-55
2021/06/02 10:16:54;;;;;;;5.83;5.33;;;35.40;39.30;;;;;;4974745;28;20470;-52
2021/06/02 10:19:39;;;;;;;6.70;4.57;;;35.40;40.10;;;;;;4974496;28;20470;-52
2021/06/02 10:22:18;;;;;;;6.80;4.97;;;35.00;40.20;;;;;;4974498;28;20545;-53
2021/06/02 10:24:47;;;;;;;8.00;5.70;;;34.50;40.80;;;;;;4974822;28;20474;-51
2021/06/02 10:27:13;;;;;;;7.30;5.60;;;34.40;41.70;;;;;;4975005;28;20462;-54
2021/06/02 10:29:39;;;;;;;4.30;3.83;;;34.30;41.20;;;;;;4974782;28;20455;-51
2021/06/02 10:32:07;;;;;;;6.10;4.87;;;34.20;39.10;;;;;;4974728;28;20487;-53
2021/06/02 10:34:33;;;;;;;5.33;4.83;;;33.80;40.60;;;;;;4974437;28;20466;-56
2021/06/02 10:36:59;;;;;;;7.40;5.57;;;33.60;42.10;;;;;;4974326;28;20458;-55
2021/06/02 10:39:28;;;;;;;4.93;4.53;;;33.20;42.20;;;;;;4974424;28;20451;-55
2021/06/02 10:42:01;;;;;;;7.70;6.73;;;32.80;42.40;;;;;;4974464;28;20447;-52
2021/06/02 10:44:31;;;;;;;10.03;4.70;;;32.40;43.30;;;;;;4974742;28;20917;-55
2021/06/02 10:46:59;;;;;;;6.47;5.87;;;32.10;43.20;;;;;;4975982;28;20450;-50
2021/06/02 10:49:28;;;;;;;6.90;4.60;;;31.80;43.60;;;;;;4978375;28;20443;-52
2021/06/02 10:51:56;;;;;;;5.60;4.97;;;31.40;45.60;;;;;;4978243;28;20581;-51
2021/06/02 10:54:34;;;;;;;6.47;5.60;;;31.20;44.90;;;;;;4978455;28;20748;-53
2021/06/02 10:57:16;;;;;;;9.60;5.63;;;30.60;45.50;;;;;;4978330;28;20530;-54
2021/06/02 10:59:43;;;;;;;11.40;5.57;;;30.20;47.60;;;;;;4977921;28;20465;-51
2021/06/02 11:02:11;;;;;;;7.73;7.03;;;30.00;47.40;;;;;;4977942;28;20451;-50
2021/06/02 11:04:38;;;;;;;6.10;4.40;;;29.90;47.30;;;;;;4977968;28;20459;-53
2021/06/02 11:07:15;;;;;;;7.97;5.20;;;29.90;48.10;;;;;;4977582;28;20478;-55
2021/06/02 11:09:58;;;;;;;6.43;5.70;;;29.70;47.20;;;;;;4978164;28;20505;-57
2021/06/02 11:12:27;;;;;;;6.67;4.10;;;29.40;47.70;;;;;;4977786;28;20569;-52
2021/06/02 11:14:53;;;;;;;8.20;5.50;;;29.30;48.30;;;;;;4977910;28;20463;-53
2021/06/02 11:17:21;;;;;;;5.70;4.53;;;29.50;49.10;;;;;;4978039;28;20451;-53
2021/06/02 11:19:55;;;;;;;8.17;4.50;;;29.60;48.70;;;;;;4977793;28;20450;-49
2021/06/02 11:22:24;;;;;;;8.73;4.80;;;29.70;47.10;;;;;;4977826;28;20465;-54
2021/06/02 11:24:53;;;;;;;5.07;4.40;;;29.60;45.70;;;;;;4977490;28;20446;-53
2021/06/02 11:27:36;;;;;;;7.20;5.60;;;29.30;46.20;;;;;;4977759;28;20450;-52
2021/06/02 11:30:27;;;;;;;7.13;4.73;;;28.90;46.80;;;;;;4977780;28;20522;-53
2021/06/02 11:33:12;;;;;;;6.43;4.97;;;28.50;48.40;;;;;;4977149;28;20490;-51
2021/06/02 11:36:05;;;;;;;5.67;5.10;;;28.00;48.40;;;;;;4977627;28;20773;-51
2021/06/02 11:38:33;;;;;;;7.63;4.90;;;27.50;48.20;;;;;;4977582;28;20800;-52
2021/06/02 11:40:59;;;;;;;5.80;4.67;;;27.20;49.50;;;;;;4977319;28;20473;-56
2021/06/02 11:43:26;;;;;;;7.90;5.33;;;26.90;52.40;;;;;;4977319;28;20451;-50
2021/06/02 11:45:56;;;;;;;7.73;5.40;;;26.60;51.70;;;;;;4977120;28;20921;-52
2021/06/02 11:48:24;;;;;;;7.50;5.33;;;26.50;53.00;;;;;;4977414;28;20447;-49
2021/06/02 11:50:52;;;;;;;8.37;4.60;;;26.50;52.70;;;;;;4977155;28;20524;-53
2021/06/02 11:53:18;;;;;;;5.80;4.43;;;26.50;51.20;;;;;;4977112;28;20490;-54
2021/06/02 11:55:45;;;;;;;6.97;5.00;;;26.50;50.90;;;;;;4977359;28;20442;-55
2021/06/02 11:58:11;;;;;;;5.90;4.90;;;26.50;51.10;;;;;;4976706;28;20790;-49
2021/06/02 12:00:39;;;;;;;7.00;4.60;;;26.60;51.00;;;;;;4976955;28;20450;-51
2021/06/02 12:03:07;;;;;;;5.80;5.17;;;27.00;50.30;;;;;;4977016;28;20462;-54
2021/06/02 12:05:35;;;;;;;7.17;5.70;;;27.30;50.90;;;;;;4976838;28;21029;-48
2021/06/02 12:08:04;;;;;;;9.13;5.50;;;27.20;50.20;;;;;;4977032;28;20454;-50
2021/06/02 12:10:32;;;;;;;5.00;4.47;;;27.10;50.40;;;;;;4976743;28;20529;-53
2021/06/02 12:12:59;;;;;;;5.60;4.73;;;27.00;49.60;;;;;;4977003;28;20887;-54
2021/06/02 12:15:27;;;;;;;6.43;4.07;;;26.80;49.60;;;;;;4976933;28;20463;-54
2021/06/02 12:17:54;;;;;;;6.90;4.67;;;26.80;49.30;;;;;;4976488;28;20462;-55
2021/06/02 12:20:22;;;;;;;4.80;4.40;;;26.70;48.50;;;;;;4959654;28;20508;-55
2021/06/02 12:22:50;;;;;;;11.07;4.17;;;26.60;49.20;;;;;;4976874;28;20469;-55
2021/06/02 12:25:18;;;;;;;6.70;6.10;;;26.30;49.60;;;;;;4976892;28;20845;-54
2021/06/02 12:27:46;;;;;;;5.30;4.17;;;26.00;50.80;;;;;;4976463;28;20455;-52
2021/06/02 12:30:15;;;;;;;12.30;4.50;;;25.90;51.40;;;;;;4976407;28;20904;-53
2021/06/02 12:33:01;;;;;;;4.90;4.40;;;25.90;52.40;;;;;;4976666;28;20553;-54
2021/06/02 12:35:33;;;;;;;5.97;4.00;;;25.80;51.80;;;;;;4976433;28;20906;-54
2021/06/02 12:38:09;;;;;;;5.87;4.50;;;25.70;52.10;;;;;;4976642;28;20431;-52
2021/06/02 12:40:37;;;;;;;4.60;4.20;;;25.70;52.10;;;;;;4976608;28;20938;-51
2021/06/02 12:43:10;;;;;;;4.77;4.30;;;25.60;52.10;;;;;;4976831;28;20446;-50
2021/06/02 12:45:39;;;;;;;5.40;4.40;;;25.60;52.50;;;;;;4976985;28;20427;-49
2021/06/02 12:48:09;;;;;;;4.63;4.23;;;25.60;52.40;;;;;;4977046;28;20446;-50
2021/06/02 12:50:41;;;;;;;4.70;4.30;;;25.60;52.40;;;;;;4976572;28;20498;-52
2021/06/02 12:53:08;;;;;;;5.80;4.80;;;25.60;52.60;;;;;;4976008;28;20482;-50
2021/06/02 12:55:37;;;;;;;4.77;4.27;;;25.70;51.90;;;;;;4975821;28;20457;-55
2021/06/02 12:58:05;;;;;;;4.20;3.80;;;25.90;52.30;;;;;;4975906;28;20447;-54
2021/06/02 13:00:32;;;;;;;8.50;4.20;;;26.20;52.40;;;;;;4975990;28;20451;-55
2021/06/02 13:03:00;;;;;;;4.33;3.93;;;26.50;50.90;;;;;;4976021;28;20888;-51
2021/06/02 13:05:28;;;;;;;6.87;5.23;;;26.80;50.40;;;;;;4975448;28;20478;-54
2021/06/02 13:08:15;;;;;;;7.80;5.00;;;27.10;50.50;;;;;;4975725;28;20533;-53
2021/06/02 13:10:44;;;;;;;4.60;4.20;;;27.40;49.80;;;;;;4969224;28;20463;-53
2021/06/02 13:13:14;;;;;;;3.57;3.27;;;27.60;48.30;;;;;;4975518;28;20487;-52
2021/06/02 13:15:42;;;;;;;4.40;4.00;;;27.80;47.90;;;;;;4975951;28;20454;-55
2021/06/02 13:18:21;;;;;;;5.60;3.67;;;28.00;48.20;;;;;;4975564;28;20513;-54
2021/06/02 13:20:49;;;;;;;4.33;3.93;;;27.90;47.10;;;;;;4985731;28;20538;-52
2021/06/02 13:23:18;;;;;;;7.33;4.33;;;27.90;46.90;;;;;;4993610;28;20450;-53
2021/06/02 13:25:46;;;;;;;4.80;3.50;;;27.80;46.10;;;;;;4994843;28;20469;-50